sensor_id;sensor_type;location;lat;lon;timestamp;temperature;humidity
77693;SHT31;66984;47.404;18.836;2023-04-07T00:00:10;6.03;66.24
77693;SHT31;66984;47.404;18.836;2023-04-07T00:01:14;6.03;65.94
77693;SHT31;66984;47.404;18.836;2023-04-07T00:02:17;6.02;65.91
77693;SHT31;66984;47.404;18.836;2023-04-07T00:03:20;6.04;65.84
77693;SHT31;66984;47.404;18.836;2023-04-07T00:04:23;6.04;65.91
77693;SHT31;66984;47.404;18.836;2023-04-07T00:05:26;6.04;65.98
77693;SHT31;66984;47.404;18.836;2023-04-07T00:06:29;6.09;65.74
77693;SHT31;66984;47.404;18.836;2023-04-07T00:07:33;6.10;65.79
77693;SHT31;66984;47.404;18.836;2023-04-07T00:08:53;6.10;65.80
77693;SHT31;66984;47.404;18.836;2023-04-07T00:09:56;6.14;65.64
77693;SHT31;66984;47.404;18.836;2023-04-07T00:10:59;6.14;65.68
77693;SHT31;66984;47.404;18.836;2023-04-07T00:12:02;6.13;65.61
77693;SHT31;66984;47.404;18.836;2023-04-07T00:13:06;6.14;65.89
77693;SHT31;66984;47.404;18.836;2023-04-07T00:14:09;6.13;65.59
77693;SHT31;66984;47.404;18.836;2023-04-07T00:15:11;6.14;65.58
77693;SHT31;66984;47.404;18.836;2023-04-07T00:16:14;6.11;65.64
77693;SHT31;66984;47.404;18.836;2023-04-07T00:17:17;6.11;65.51
77693;SHT31;66984;47.404;18.836;2023-04-07T00:18:20;6.11;65.58
77693;SHT31;66984;47.404;18.836;2023-04-07T00:19:23;6.14;65.48
77693;SHT31;66984;47.404;18.836;2023-04-07T00:20:26;6.16;65.36
77693;SHT31;66984;47.404;18.836;2023-04-07T00:21:29;6.16;65.42
77693;SHT31;66984;47.404;18.836;2023-04-07T00:22:33;6.17;65.65
77693;SHT31;66984;47.404;18.836;2023-04-07T00:23:36;6.18;65.47
77693;SHT31;66984;47.404;18.836;2023-04-07T00:24:39;6.18;65.62
77693;SHT31;66984;47.404;18.836;2023-04-07T00:25:42;6.17;65.57
77693;SHT31;66984;47.404;18.836;2023-04-07T00:26:45;6.21;65.31
77693;SHT31;66984;47.404;18.836;2023-04-07T00:27:47;6.17;64.91
77693;SHT31;66984;47.404;18.836;2023-04-07T00:28:50;6.16;64.73
77693;SHT31;66984;47.404;18.836;2023-04-07T00:29:53;6.17;64.92
77693;SHT31;66984;47.404;18.836;2023-04-07T00:30:57;6.14;65.04
77693;SHT31;66984;47.404;18.836;2023-04-07T00:31:59;6.14;64.73
77693;SHT31;66984;47.404;18.836;2023-04-07T00:33:02;6.17;64.78
77693;SHT31;66984;47.404;18.836;2023-04-07T00:34:10;6.18;65.14
77693;SHT31;66984;47.404;18.836;2023-04-07T00:35:15;6.13;65.07
77693;SHT31;66984;47.404;18.836;2023-04-07T00:36:18;6.14;65.25
77693;SHT31;66984;47.404;18.836;2023-04-07T00:37:21;6.13;65.27
77693;SHT31;66984;47.404;18.836;2023-04-07T00:38:24;6.16;64.98
77693;SHT31;66984;47.404;18.836;2023-04-07T00:39:27;6.16;65.01
77693;SHT31;66984;47.404;18.836;2023-04-07T00:40:30;6.13;65.18
77693;SHT31;66984;47.404;18.836;2023-04-07T00:41:34;6.13;65.17
77693;SHT31;66984;47.404;18.836;2023-04-07T00:42:37;6.11;65.12
77693;SHT31;66984;47.404;18.836;2023-04-07T00:43:40;6.14;65.00
77693;SHT31;66984;47.404;18.836;2023-04-07T00:44:43;6.11;65.19
77693;SHT31;66984;47.404;18.836;2023-04-07T00:45:46;6.16;65.19
77693;SHT31;66984;47.404;18.836;2023-04-07T00:46:49;6.14;65.05
77693;SHT31;66984;47.404;18.836;2023-04-07T00:47:52;6.14;64.90
77693;SHT31;66984;47.404;18.836;2023-04-07T00:48:55;6.14;64.95
77693;SHT31;66984;47.404;18.836;2023-04-07T00:49:58;6.16;65.18
77693;SHT31;66984;47.404;18.836;2023-04-07T00:51:01;6.14;65.08
77693;SHT31;66984;47.404;18.836;2023-04-07T00:52:04;6.13;65.03
77693;SHT31;66984;47.404;18.836;2023-04-07T00:53:08;6.13;65.27
77693;SHT31;66984;47.404;18.836;2023-04-07T00:54:12;6.17;65.40
77693;SHT31;66984;47.404;18.836;2023-04-07T00:55:15;6.17;65.13
77693;SHT31;66984;47.404;18.836;2023-04-07T00:56:18;6.16;65.27
77693;SHT31;66984;47.404;18.836;2023-04-07T00:57:21;6.20;65.58
77693;SHT31;66984;47.404;18.836;2023-04-07T00:58:24;6.14;65.09
77693;SHT31;66984;47.404;18.836;2023-04-07T00:59:28;6.16;64.72
77693;SHT31;66984;47.404;18.836;2023-04-07T01:00:40;6.14;64.61
77693;SHT31;66984;47.404;18.836;2023-04-07T01:01:57;6.14;65.15
77693;SHT31;66984;47.404;18.836;2023-04-07T01:03:10;6.13;65.19
77693;SHT31;66984;47.404;18.836;2023-04-07T01:04:25;6.11;64.91
77693;SHT31;66984;47.404;18.836;2023-04-07T01:05:30;6.09;65.11
77693;SHT31;66984;47.404;18.836;2023-04-07T01:06:39;6.13;65.04
77693;SHT31;66984;47.404;18.836;2023-04-07T01:08:53;6.13;65.01
77693;SHT31;66984;47.404;18.836;2023-04-07T01:10:02;6.14;64.83
77693;SHT31;66984;47.404;18.836;2023-04-07T01:12:35;6.11;65.03
77693;SHT31;66984;47.404;18.836;2023-04-07T01:14:52;6.11;64.92
77693;SHT31;66984;47.404;18.836;2023-04-07T01:15:57;6.11;64.90
77693;SHT31;66984;47.404;18.836;2023-04-07T01:17:02;6.10;64.87
77693;SHT31;66984;47.404;18.836;2023-04-07T01:18:12;6.10;64.62
77693;SHT31;66984;47.404;18.836;2023-04-07T01:20:38;6.04;65.19
77693;SHT31;66984;47.404;18.836;2023-04-07T01:21:43;6.04;65.29
77693;SHT31;66984;47.404;18.836;2023-04-07T01:22:54;6.04;65.25
77693;SHT31;66984;47.404;18.836;2023-04-07T01:26:31;6.04;65.25
77693;SHT31;66984;47.404;18.836;2023-04-07T01:28:06;6.03;65.14
77693;SHT31;66984;47.404;18.836;2023-04-07T01:30:38;6.00;65.15
77693;SHT31;66984;47.404;18.836;2023-04-07T01:31:44;6.02;64.86
77693;SHT31;66984;47.404;18.836;2023-04-07T01:32:51;6.00;64.90
77693;SHT31;66984;47.404;18.836;2023-04-07T01:33:56;6.02;64.77
77693;SHT31;66984;47.404;18.836;2023-04-07T01:35:02;6.03;64.54
77693;SHT31;66984;47.404;18.836;2023-04-07T01:36:07;6.03;64.69
77693;SHT31;66984;47.404;18.836;2023-04-07T01:37:10;6.03;64.84
77693;SHT31;66984;47.404;18.836;2023-04-07T01:38:14;6.03;64.69
77693;SHT31;66984;47.404;18.836;2023-04-07T01:39:18;6.03;64.33
77693;SHT31;66984;47.404;18.836;2023-04-07T01:40:21;6.00;64.48
77693;SHT31;66984;47.404;18.836;2023-04-07T01:41:25;6.00;64.25
77693;SHT31;66984;47.404;18.836;2023-04-07T01:42:30;5.99;64.00
77693;SHT31;66984;47.404;18.836;2023-04-07T01:43:33;5.93;63.66
77693;SHT31;66984;47.404;18.836;2023-04-07T01:44:39;5.96;63.88
77693;SHT31;66984;47.404;18.836;2023-04-07T01:45:43;5.94;64.37
77693;SHT31;66984;47.404;18.836;2023-04-07T01:46:47;5.94;64.22
77693;SHT31;66984;47.404;18.836;2023-04-07T01:47:53;5.93;64.12
77693;SHT31;66984;47.404;18.836;2023-04-07T01:48:57;5.96;64.11
77693;SHT31;66984;47.404;18.836;2023-04-07T01:50:01;5.96;64.00
77693;SHT31;66984;47.404;18.836;2023-04-07T01:51:09;5.92;63.69
77693;SHT31;66984;47.404;18.836;2023-04-07T01:52:13;5.96;64.02
77693;SHT31;66984;47.404;18.836;2023-04-07T01:53:17;5.96;63.93
77693;SHT31;66984;47.404;18.836;2023-04-07T01:54:21;5.99;64.21
77693;SHT31;66984;47.404;18.836;2023-04-07T01:55:24;6.00;64.28
77693;SHT31;66984;47.404;18.836;2023-04-07T01:56:27;6.04;64.30
77693;SHT31;66984;47.404;18.836;2023-04-07T01:57:30;5.99;64.31
77693;SHT31;66984;47.404;18.836;2023-04-07T01:58:33;5.94;63.94
77693;SHT31;66984;47.404;18.836;2023-04-07T01:59:36;5.93;63.88
77693;SHT31;66984;47.404;18.836;2023-04-07T02:00:40;5.83;63.88
77693;SHT31;66984;47.404;18.836;2023-04-07T02:01:43;5.85;64.47
77693;SHT31;66984;47.404;18.836;2023-04-07T02:02:48;5.86;64.34
77693;SHT31;66984;47.404;18.836;2023-04-07T02:04:04;5.89;64.62
77693;SHT31;66984;47.404;18.836;2023-04-07T02:05:13;5.89;64.33
77693;SHT31;66984;47.404;18.836;2023-04-07T02:06:23;5.87;64.12
77693;SHT31;66984;47.404;18.836;2023-04-07T02:07:38;5.83;64.12
77693;SHT31;66984;47.404;18.836;2023-04-07T02:08:46;5.80;64.30
77693;SHT31;66984;47.404;18.836;2023-04-07T02:09:55;5.77;64.19
77693;SHT31;66984;47.404;18.836;2023-04-07T02:11:00;5.80;64.61
77693;SHT31;66984;47.404;18.836;2023-04-07T02:12:07;5.85;64.96
77693;SHT31;66984;47.404;18.836;2023-04-07T02:13:15;5.83;65.15
77693;SHT31;66984;47.404;18.836;2023-04-07T02:14:18;5.82;64.84
77693;SHT31;66984;47.404;18.836;2023-04-07T02:15:25;5.82;64.27
77693;SHT31;66984;47.404;18.836;2023-04-07T02:16:30;5.85;64.37
77693;SHT31;66984;47.404;18.836;2023-04-07T02:17:37;5.86;64.68
77693;SHT31;66984;47.404;18.836;2023-04-07T02:18:42;5.82;64.40
77693;SHT31;66984;47.404;18.836;2023-04-07T02:19:46;5.85;64.52
77693;SHT31;66984;47.404;18.836;2023-04-07T02:20:51;5.83;64.89
77693;SHT31;66984;47.404;18.836;2023-04-07T02:21:54;5.83;64.92
77693;SHT31;66984;47.404;18.836;2023-04-07T02:22:58;5.86;64.82
77693;SHT31;66984;47.404;18.836;2023-04-07T02:24:04;5.87;64.96
77693;SHT31;66984;47.404;18.836;2023-04-07T02:25:21;5.87;64.92
77693;SHT31;66984;47.404;18.836;2023-04-07T02:26:24;5.89;65.06
77693;SHT31;66984;47.404;18.836;2023-04-07T02:27:27;5.90;65.22
77693;SHT31;66984;47.404;18.836;2023-04-07T02:28:30;5.93;65.26
77693;SHT31;66984;47.404;18.836;2023-04-07T02:29:33;5.93;65.00
77693;SHT31;66984;47.404;18.836;2023-04-07T02:30:36;5.93;64.95
77693;SHT31;66984;47.404;18.836;2023-04-07T02:31:39;5.96;64.88
77693;SHT31;66984;47.404;18.836;2023-04-07T02:32:41;5.93;64.90
77693;SHT31;66984;47.404;18.836;2023-04-07T02:33:44;5.96;64.93
77693;SHT31;66984;47.404;18.836;2023-04-07T02:34:47;5.97;65.20
77693;SHT31;66984;47.404;18.836;2023-04-07T02:35:50;5.99;65.34
77693;SHT31;66984;47.404;18.836;2023-04-07T02:36:53;5.97;65.35
77693;SHT31;66984;47.404;18.836;2023-04-07T02:37:56;5.99;65.54
77693;SHT31;66984;47.404;18.836;2023-04-07T02:38:59;5.99;66.04
77693;SHT31;66984;47.404;18.836;2023-04-07T02:40:03;5.99;65.90
77693;SHT31;66984;47.404;18.836;2023-04-07T02:41:06;5.94;66.38
77693;SHT31;66984;47.404;18.836;2023-04-07T02:42:09;5.93;66.65
77693;SHT31;66984;47.404;18.836;2023-04-07T02:43:13;5.89;66.71
77693;SHT31;66984;47.404;18.836;2023-04-07T02:44:15;5.92;66.72
77693;SHT31;66984;47.404;18.836;2023-04-07T02:45:18;5.92;66.72
77693;SHT31;66984;47.404;18.836;2023-04-07T02:46:21;5.94;66.89
77693;SHT31;66984;47.404;18.836;2023-04-07T02:47:24;5.94;67.04
77693;SHT31;66984;47.404;18.836;2023-04-07T02:48:27;5.92;66.94
77693;SHT31;66984;47.404;18.836;2023-04-07T02:49:31;5.89;66.93
77693;SHT31;66984;47.404;18.836;2023-04-07T02:50:34;5.85;67.30
77693;SHT31;66984;47.404;18.836;2023-04-07T02:51:37;5.83;67.47
77693;SHT31;66984;47.404;18.836;2023-04-07T02:52:40;5.82;67.83
77693;SHT31;66984;47.404;18.836;2023-04-07T02:53:43;5.75;68.04
77693;SHT31;66984;47.404;18.836;2023-04-07T02:54:45;5.69;68.15
77693;SHT31;66984;47.404;18.836;2023-04-07T02:55:48;5.63;68.52
77693;SHT31;66984;47.404;18.836;2023-04-07T02:56:52;5.59;68.60
77693;SHT31;66984;47.404;18.836;2023-04-07T02:57:55;5.55;68.75
77693;SHT31;66984;47.404;18.836;2023-04-07T02:58:57;5.49;69.00
77693;SHT31;66984;47.404;18.836;2023-04-07T03:00:01;5.42;69.53
77693;SHT31;66984;47.404;18.836;2023-04-07T03:01:04;5.36;69.75
77693;SHT31;66984;47.404;18.836;2023-04-07T03:02:07;5.36;69.60
77693;SHT31;66984;47.404;18.836;2023-04-07T03:03:10;5.36;69.73
77693;SHT31;66984;47.404;18.836;2023-04-07T03:04:13;5.38;69.90
77693;SHT31;66984;47.404;18.836;2023-04-07T03:05:16;5.35;69.85
77693;SHT31;66984;47.404;18.836;2023-04-07T03:06:19;5.41;69.93
77693;SHT31;66984;47.404;18.836;2023-04-07T03:07:22;5.38;70.05
77693;SHT31;66984;47.404;18.836;2023-04-07T03:08:26;5.39;70.06
77693;SHT31;66984;47.404;18.836;2023-04-07T03:09:29;5.44;70.09
77693;SHT31;66984;47.404;18.836;2023-04-07T03:10:32;5.42;70.15
77693;SHT31;66984;47.404;18.836;2023-04-07T03:11:35;5.42;70.20
77693;SHT31;66984;47.404;18.836;2023-04-07T03:12:38;5.42;70.28
77693;SHT31;66984;47.404;18.836;2023-04-07T03:13:40;5.41;70.36
77693;SHT31;66984;47.404;18.836;2023-04-07T03:14:43;5.41;70.21
77693;SHT31;66984;47.404;18.836;2023-04-07T03:15:46;5.42;70.30
77693;SHT31;66984;47.404;18.836;2023-04-07T03:16:49;5.41;70.42
77693;SHT31;66984;47.404;18.836;2023-04-07T03:17:52;5.41;70.48
77693;SHT31;66984;47.404;18.836;2023-04-07T03:18:55;5.44;70.49
77693;SHT31;66984;47.404;18.836;2023-04-07T03:19:58;5.39;70.28
77693;SHT31;66984;47.404;18.836;2023-04-07T03:21:01;5.38;70.11
77693;SHT31;66984;47.404;18.836;2023-04-07T03:22:04;5.42;70.48
77693;SHT31;66984;47.404;18.836;2023-04-07T03:23:07;5.41;70.55
77693;SHT31;66984;47.404;18.836;2023-04-07T03:24:10;5.45;70.52
77693;SHT31;66984;47.404;18.836;2023-04-07T03:25:13;5.48;70.35
77693;SHT31;66984;47.404;18.836;2023-04-07T03:26:16;5.46;70.49
77693;SHT31;66984;47.404;18.836;2023-04-07T03:27:19;5.45;70.30
77693;SHT31;66984;47.404;18.836;2023-04-07T03:28:22;5.44;70.24
77693;SHT31;66984;47.404;18.836;2023-04-07T03:29:25;5.49;70.50
77693;SHT31;66984;47.404;18.836;2023-04-07T03:30:28;5.49;70.23
77693;SHT31;66984;47.404;18.836;2023-04-07T03:31:30;5.49;70.24
77693;SHT31;66984;47.404;18.836;2023-04-07T03:32:33;5.52;70.26
77693;SHT31;66984;47.404;18.836;2023-04-07T03:33:36;5.52;70.23
77693;SHT31;66984;47.404;18.836;2023-04-07T03:34:39;5.54;70.15
77693;SHT31;66984;47.404;18.836;2023-04-07T03:35:42;5.54;70.25
77693;SHT31;66984;47.404;18.836;2023-04-07T03:36:45;5.52;69.97
77693;SHT31;66984;47.404;18.836;2023-04-07T03:37:48;5.58;70.10
77693;SHT31;66984;47.404;18.836;2023-04-07T03:38:51;5.60;69.97
77693;SHT31;66984;47.404;18.836;2023-04-07T03:39:54;5.58;69.99
77693;SHT31;66984;47.404;18.836;2023-04-07T03:40:57;5.59;69.98
77693;SHT31;66984;47.404;18.836;2023-04-07T03:41:59;5.59;69.88
77693;SHT31;66984;47.404;18.836;2023-04-07T03:43:02;5.56;69.94
77693;SHT31;66984;47.404;18.836;2023-04-07T03:44:05;5.55;69.99
77693;SHT31;66984;47.404;18.836;2023-04-07T03:45:08;5.55;70.04
77693;SHT31;66984;47.404;18.836;2023-04-07T03:46:12;5.54;70.10
77693;SHT31;66984;47.404;18.836;2023-04-07T03:47:15;5.49;70.14
77693;SHT31;66984;47.404;18.836;2023-04-07T03:48:18;5.55;70.10
77693;SHT31;66984;47.404;18.836;2023-04-07T03:49:20;5.48;70.10
77693;SHT31;66984;47.404;18.836;2023-04-07T03:50:23;5.54;70.13
77693;SHT31;66984;47.404;18.836;2023-04-07T03:51:26;5.54;70.19
77693;SHT31;66984;47.404;18.836;2023-04-07T03:52:29;5.56;70.24
77693;SHT31;66984;47.404;18.836;2023-04-07T03:53:32;5.54;70.18
77693;SHT31;66984;47.404;18.836;2023-04-07T03:54:35;5.49;69.90
77693;SHT31;66984;47.404;18.836;2023-04-07T03:55:38;5.51;69.92
77693;SHT31;66984;47.404;18.836;2023-04-07T03:56:41;5.49;69.97
77693;SHT31;66984;47.404;18.836;2023-04-07T03:57:44;5.48;69.90
77693;SHT31;66984;47.404;18.836;2023-04-07T03:58:47;5.54;69.90
77693;SHT31;66984;47.404;18.836;2023-04-07T03:59:50;5.51;69.90
77693;SHT31;66984;47.404;18.836;2023-04-07T04:00:53;5.52;69.79
77693;SHT31;66984;47.404;18.836;2023-04-07T04:01:56;5.55;69.69
77693;SHT31;66984;47.404;18.836;2023-04-07T04:03:00;5.58;69.81
77693;SHT31;66984;47.404;18.836;2023-04-07T04:04:03;5.60;69.71
77693;SHT31;66984;47.404;18.836;2023-04-07T04:05:06;5.56;69.55
77693;SHT31;66984;47.404;18.836;2023-04-07T04:06:09;5.58;69.63
77693;SHT31;66984;47.404;18.836;2023-04-07T04:07:12;5.55;69.60
77693;SHT31;66984;47.404;18.836;2023-04-07T04:08:15;5.52;69.51
77693;SHT31;66984;47.404;18.836;2023-04-07T04:09:17;5.52;69.51
77693;SHT31;66984;47.404;18.836;2023-04-07T04:10:20;5.49;69.43
77693;SHT31;66984;47.404;18.836;2023-04-07T04:11:23;5.54;69.43
77693;SHT31;66984;47.404;18.836;2023-04-07T04:12:26;5.51;69.39
77693;SHT31;66984;47.404;18.836;2023-04-07T04:13:30;5.51;69.46
77693;SHT31;66984;47.404;18.836;2023-04-07T04:14:33;5.51;69.44
77693;SHT31;66984;47.404;18.836;2023-04-07T04:15:36;5.49;69.30
77693;SHT31;66984;47.404;18.836;2023-04-07T04:16:39;5.49;69.39
77693;SHT31;66984;47.404;18.836;2023-04-07T04:17:42;5.51;69.39
77693;SHT31;66984;47.404;18.836;2023-04-07T04:18:45;5.51;69.35
77693;SHT31;66984;47.404;18.836;2023-04-07T04:19:48;5.54;69.39
77693;SHT31;66984;47.404;18.836;2023-04-07T04:20:51;5.55;69.36
77693;SHT31;66984;47.404;18.836;2023-04-07T04:21:54;5.58;69.38
77693;SHT31;66984;47.404;18.836;2023-04-07T04:22:57;5.59;69.25
77693;SHT31;66984;47.404;18.836;2023-04-07T04:24:00;5.60;69.19
77693;SHT31;66984;47.404;18.836;2023-04-07T04:25:03;5.62;69.21
77693;SHT31;66984;47.404;18.836;2023-04-07T04:26:06;5.63;69.21
77693;SHT31;66984;47.404;18.836;2023-04-07T04:27:09;5.65;69.40
77693;SHT31;66984;47.404;18.836;2023-04-07T04:28:12;5.66;69.33
77693;SHT31;66984;47.404;18.836;2023-04-07T04:29:15;5.60;68.97
77693;SHT31;66984;47.404;18.836;2023-04-07T04:30:18;5.62;68.72
77693;SHT31;66984;47.404;18.836;2023-04-07T04:31:21;5.63;68.95
77693;SHT31;66984;47.404;18.836;2023-04-07T04:32:24;5.56;69.15
77693;SHT31;66984;47.404;18.836;2023-04-07T04:33:27;5.58;69.02
77693;SHT31;66984;47.404;18.836;2023-04-07T04:34:30;5.59;69.10
77693;SHT31;66984;47.404;18.836;2023-04-07T04:35:33;5.58;68.98
77693;SHT31;66984;47.404;18.836;2023-04-07T04:36:35;5.60;68.96
77693;SHT31;66984;47.404;18.836;2023-04-07T04:37:38;5.59;68.88
77693;SHT31;66984;47.404;18.836;2023-04-07T04:38:42;5.55;68.77
77693;SHT31;66984;47.404;18.836;2023-04-07T04:39:45;5.55;68.67
77693;SHT31;66984;47.404;18.836;2023-04-07T04:40:48;5.49;68.67
77693;SHT31;66984;47.404;18.836;2023-04-07T04:41:51;5.48;68.73
77693;SHT31;66984;47.404;18.836;2023-04-07T04:42:54;5.48;69.15
77693;SHT31;66984;47.404;18.836;2023-04-07T04:43:56;5.42;69.25
77693;SHT31;66984;47.404;18.836;2023-04-07T04:44:59;5.48;69.16
77693;SHT31;66984;47.404;18.836;2023-04-07T04:46:02;5.51;69.45
77693;SHT31;66984;47.404;18.836;2023-04-07T04:47:05;5.55;69.18
77693;SHT31;66984;47.404;18.836;2023-04-07T04:48:08;5.55;69.14
77693;SHT31;66984;47.404;18.836;2023-04-07T04:49:12;5.55;69.28
77693;SHT31;66984;47.404;18.836;2023-04-07T04:50:16;5.58;69.05
77693;SHT31;66984;47.404;18.836;2023-04-07T04:51:19;5.58;69.28
77693;SHT31;66984;47.404;18.836;2023-04-07T04:52:22;5.59;69.17
77693;SHT31;66984;47.404;18.836;2023-04-07T04:53:25;5.59;68.96
77693;SHT31;66984;47.404;18.836;2023-04-07T04:54:28;5.60;68.87
77693;SHT31;66984;47.404;18.836;2023-04-07T04:55:33;5.62;68.84
77693;SHT31;66984;47.404;18.836;2023-04-07T04:56:36;5.66;68.92
77693;SHT31;66984;47.404;18.836;2023-04-07T04:57:39;5.66;68.99
77693;SHT31;66984;47.404;18.836;2023-04-07T04:58:42;5.70;68.91
77693;SHT31;66984;47.404;18.836;2023-04-07T04:59:47;5.73;69.02
77693;SHT31;66984;47.404;18.836;2023-04-07T05:00:53;5.75;68.90
77693;SHT31;66984;47.404;18.836;2023-04-07T05:01:59;5.76;68.85
77693;SHT31;66984;47.404;18.836;2023-04-07T05:03:02;5.80;68.80
77693;SHT31;66984;47.404;18.836;2023-04-07T05:04:06;5.77;69.05
77693;SHT31;66984;47.404;18.836;2023-04-07T05:05:11;5.76;69.15
77693;SHT31;66984;47.404;18.836;2023-04-07T05:06:14;5.77;69.22
77693;SHT31;66984;47.404;18.836;2023-04-07T05:07:17;5.77;69.06
77693;SHT31;66984;47.404;18.836;2023-04-07T05:08:20;5.70;69.38
77693;SHT31;66984;47.404;18.836;2023-04-07T05:09:23;5.67;69.43
77693;SHT31;66984;47.404;18.836;2023-04-07T05:10:26;5.69;69.53
77693;SHT31;66984;47.404;18.836;2023-04-07T05:11:29;5.75;69.27
77693;SHT31;66984;47.404;18.836;2023-04-07T05:12:32;5.62;69.31
77693;SHT31;66984;47.404;18.836;2023-04-07T05:13:35;5.60;69.56
77693;SHT31;66984;47.404;18.836;2023-04-07T05:14:38;5.63;69.77
77693;SHT31;66984;47.404;18.836;2023-04-07T05:15:41;5.60;69.69
77693;SHT31;66984;47.404;18.836;2023-04-07T05:16:44;5.63;69.49
77693;SHT31;66984;47.404;18.836;2023-04-07T05:17:47;5.65;69.27
77693;SHT31;66984;47.404;18.836;2023-04-07T05:18:52;5.66;69.37
77693;SHT31;66984;47.404;18.836;2023-04-07T05:19:54;5.72;69.37
77693;SHT31;66984;47.404;18.836;2023-04-07T05:20:57;5.72;69.56
77693;SHT31;66984;47.404;18.836;2023-04-07T05:22:00;5.73;69.23
77693;SHT31;66984;47.404;18.836;2023-04-07T05:23:03;5.67;69.25
77693;SHT31;66984;47.404;18.836;2023-04-07T05:24:06;5.67;69.27
77693;SHT31;66984;47.404;18.836;2023-04-07T05:25:10;5.69;69.12
77693;SHT31;66984;47.404;18.836;2023-04-07T05:26:13;5.70;69.19
77693;SHT31;66984;47.404;18.836;2023-04-07T05:27:15;5.69;69.23
77693;SHT31;66984;47.404;18.836;2023-04-07T05:28:18;5.75;69.13
77693;SHT31;66984;47.404;18.836;2023-04-07T05:29:22;5.76;69.00
77693;SHT31;66984;47.404;18.836;2023-04-07T05:30:25;5.76;68.86
77693;SHT31;66984;47.404;18.836;2023-04-07T05:31:27;5.79;68.83
77693;SHT31;66984;47.404;18.836;2023-04-07T05:32:30;5.80;68.86
77693;SHT31;66984;47.404;18.836;2023-04-07T05:33:33;5.82;68.88
77693;SHT31;66984;47.404;18.836;2023-04-07T05:34:37;5.77;68.82
77693;SHT31;66984;47.404;18.836;2023-04-07T05:35:40;5.79;68.80
77693;SHT31;66984;47.404;18.836;2023-04-07T05:36:43;5.79;68.93
77693;SHT31;66984;47.404;18.836;2023-04-07T05:37:45;5.82;69.02
77693;SHT31;66984;47.404;18.836;2023-04-07T05:38:48;5.79;69.09
77693;SHT31;66984;47.404;18.836;2023-04-07T05:39:51;5.82;69.04
77693;SHT31;66984;47.404;18.836;2023-04-07T05:40:54;5.83;68.64
77693;SHT31;66984;47.404;18.836;2023-04-07T05:41:57;5.86;68.41
77693;SHT31;66984;47.404;18.836;2023-04-07T05:43:00;5.90;68.43
77693;SHT31;66984;47.404;18.836;2023-04-07T05:44:03;5.89;68.19
77693;SHT31;66984;47.404;18.836;2023-04-07T05:45:06;5.85;68.15
77693;SHT31;66984;47.404;18.836;2023-04-07T05:46:11;5.85;68.25
77693;SHT31;66984;47.404;18.836;2023-04-07T05:47:14;5.85;68.13
77693;SHT31;66984;47.404;18.836;2023-04-07T05:48:17;5.87;68.22
77693;SHT31;66984;47.404;18.836;2023-04-07T05:49:20;5.87;68.10
77693;SHT31;66984;47.404;18.836;2023-04-07T05:50:23;5.85;68.04
77693;SHT31;66984;47.404;18.836;2023-04-07T05:51:26;5.85;68.11
77693;SHT31;66984;47.404;18.836;2023-04-07T05:52:29;5.86;68.21
77693;SHT31;66984;47.404;18.836;2023-04-07T05:53:32;5.93;68.19
77693;SHT31;66984;47.404;18.836;2023-04-07T05:54:35;5.96;68.26
77693;SHT31;66984;47.404;18.836;2023-04-07T05:55:41;5.96;68.54
77693;SHT31;66984;47.404;18.836;2023-04-07T05:56:44;5.94;68.16
77693;SHT31;66984;47.404;18.836;2023-04-07T05:57:47;5.93;67.89
77693;SHT31;66984;47.404;18.836;2023-04-07T05:58:50;5.94;68.09
77693;SHT31;66984;47.404;18.836;2023-04-07T05:59:55;5.93;67.95
77693;SHT31;66984;47.404;18.836;2023-04-07T06:00:58;5.92;68.00
77693;SHT31;66984;47.404;18.836;2023-04-07T06:02:02;5.97;68.26
77693;SHT31;66984;47.404;18.836;2023-04-07T06:03:05;6.02;68.24
77693;SHT31;66984;47.404;18.836;2023-04-07T06:04:08;5.99;67.81
77693;SHT31;66984;47.404;18.836;2023-04-07T06:05:11;5.96;67.70
77693;SHT31;66984;47.404;18.836;2023-04-07T06:06:14;5.96;67.43
77693;SHT31;66984;47.404;18.836;2023-04-07T06:07:17;5.94;67.71
77693;SHT31;66984;47.404;18.836;2023-04-07T06:08:20;5.90;67.87
77693;SHT31;66984;47.404;18.836;2023-04-07T06:09:23;5.83;68.10
77693;SHT31;66984;47.404;18.836;2023-04-07T06:10:26;5.72;67.88
77693;SHT31;66984;47.404;18.836;2023-04-07T06:11:29;5.75;67.92
77693;SHT31;66984;47.404;18.836;2023-04-07T06:12:32;5.76;68.17
77693;SHT31;66984;47.404;18.836;2023-04-07T06:13:35;5.76;68.48
77693;SHT31;66984;47.404;18.836;2023-04-07T06:14:38;5.82;68.19
77693;SHT31;66984;47.404;18.836;2023-04-07T06:15:41;5.83;68.42
77693;SHT31;66984;47.404;18.836;2023-04-07T06:16:44;5.85;68.28
77693;SHT31;66984;47.404;18.836;2023-04-07T06:17:47;5.86;67.98
77693;SHT31;66984;47.404;18.836;2023-04-07T06:18:50;5.89;67.81
77693;SHT31;66984;47.404;18.836;2023-04-07T06:19:53;5.89;68.10
77693;SHT31;66984;47.404;18.836;2023-04-07T06:20:56;5.83;67.86
77693;SHT31;66984;47.404;18.836;2023-04-07T06:21:59;5.80;67.96
77693;SHT31;66984;47.404;18.836;2023-04-07T06:23:02;5.82;68.25
77693;SHT31;66984;47.404;18.836;2023-04-07T06:24:05;5.77;67.73
77693;SHT31;66984;47.404;18.836;2023-04-07T06:25:09;5.80;67.63
77693;SHT31;66984;47.404;18.836;2023-04-07T06:26:12;5.82;67.94
77693;SHT31;66984;47.404;18.836;2023-04-07T06:27:15;5.77;68.08
77693;SHT31;66984;47.404;18.836;2023-04-07T06:28:19;5.82;68.19
77693;SHT31;66984;47.404;18.836;2023-04-07T06:29:22;5.85;68.12
77693;SHT31;66984;47.404;18.836;2023-04-07T06:30:25;5.83;68.04
77693;SHT31;66984;47.404;18.836;2023-04-07T06:31:28;5.85;68.15
77693;SHT31;66984;47.404;18.836;2023-04-07T06:32:31;5.85;68.07
77693;SHT31;66984;47.404;18.836;2023-04-07T06:33:35;5.83;67.86
77693;SHT31;66984;47.404;18.836;2023-04-07T06:34:37;5.85;67.49
77693;SHT31;66984;47.404;18.836;2023-04-07T06:35:40;5.82;67.59
77693;SHT31;66984;47.404;18.836;2023-04-07T06:36:44;5.85;67.61
77693;SHT31;66984;47.404;18.836;2023-04-07T06:37:47;5.89;67.59
77693;SHT31;66984;47.404;18.836;2023-04-07T06:38:50;5.86;67.76
77693;SHT31;66984;47.404;18.836;2023-04-07T06:39:53;5.79;67.81
77693;SHT31;66984;47.404;18.836;2023-04-07T06:40:56;5.77;67.69
77693;SHT31;66984;47.404;18.836;2023-04-07T06:41:58;5.83;67.95
77693;SHT31;66984;47.404;18.836;2023-04-07T06:43:03;5.82;67.72
77693;SHT31;66984;47.404;18.836;2023-04-07T06:44:06;5.83;67.37
77693;SHT31;66984;47.404;18.836;2023-04-07T06:45:10;5.87;67.55
77693;SHT31;66984;47.404;18.836;2023-04-07T06:46:13;5.85;67.60
77693;SHT31;66984;47.404;18.836;2023-04-07T06:47:15;5.86;67.48
77693;SHT31;66984;47.404;18.836;2023-04-07T06:48:18;5.87;67.61
77693;SHT31;66984;47.404;18.836;2023-04-07T06:49:21;5.89;67.76
77693;SHT31;66984;47.404;18.836;2023-04-07T06:50:24;5.89;67.59
77693;SHT31;66984;47.404;18.836;2023-04-07T06:51:27;5.89;67.80